Time;durP1;ratioP1;P1;durP2;ratioP2;P2;SDS_P1;SDS_P2;PMS_P1;PMS_P2;Temp;Humidity;BMP_temperature;BMP_pressure;BME280_temperature;BME280_humidity;BME280_pressure;Samples;Min_cycle;Max_cycle;Signal;HPM_P1;HPM_P2
2023/07/17 00:00:15;;;;;;;6.75;1.73;;;;;;;16.60;100.00;101353.09;5095675;27;20038;-76
2023/07/17 00:03:01;;;;;;;4.25;1.40;;;;;;;16.58;100.00;101350.50;5095071;28;20488;-76
2023/07/17 00:05:46;;;;;;;6.72;1.75;;;;;;;16.56;100.00;101357.75;5094561;27;20117;-76
2023/07/17 00:08:32;;;;;;;6.53;1.50;;;;;;;16.55;100.00;101356.03;5093931;27;20113;-75
2023/07/17 00:11:18;;;;;;;4.53;1.48;;;;;;;16.55;100.00;101358.69;5079871;28;20071;-75
2023/07/17 00:14:04;;;;;;;3.28;1.38;;;;;;;16.54;100.00;101354.31;5094266;27;20041;-77
2023/07/17 00:16:50;;;;;;;5.70;1.75;;;;;;;16.53;100.00;101352.59;5079692;28;20118;-77
2023/07/17 00:19:38;;;;;;;4.30;1.40;;;;;;;16.53;100.00;101347.25;5095723;27;20071;-77
2023/07/17 00:22:24;;;;;;;4.90;1.60;;;;;;;16.52;100.00;101345.53;5080719;28;20047;-77
2023/07/17 00:25:10;;;;;;;4.25;2.05;;;;;;;16.50;100.00;101350.97;5085526;28;20402;-77
2023/07/17 00:27:55;;;;;;;4.28;1.42;;;;;;;16.48;100.00;101352.03;5094031;28;20028;-75
2023/07/17 00:30:42;;;;;;;5.85;1.80;;;;;;;16.47;100.00;101347.63;5078497;28;20045;-76
2023/07/17 00:33:28;;;;;;;10.57;1.85;;;;;;;16.46;100.00;101356.63;5079521;28;20368;-76
2023/07/17 00:36:13;;;;;;;3.65;1.45;;;;;;;16.45;100.00;101354.91;5095904;28;20051;-77
2023/07/17 00:38:59;;;;;;;6.65;1.98;;;;;;;16.39;100.00;101346.31;5093239;28;20126;-75
2023/07/17 00:41:46;;;;;;;5.35;1.67;;;;;;;16.37;100.00;101336.66;5080251;28;20088;-76
2023/07/17 00:44:35;;;;;;;4.55;1.70;;;;;;;16.35;100.00;101334.06;5094592;28;20060;-76
2023/07/17 00:47:21;;;;;;;8.27;1.90;;;;;;;16.33;100.00;101346.69;5079140;28;20047;-76
2023/07/17 00:50:07;;;;;;;4.25;1.60;;;;;;;16.28;100.00;101341.63;5081036;28;20031;-76
2023/07/17 00:52:53;;;;;;;5.85;1.85;;;;;;;16.27;100.00;101347.06;5095961;27;20055;-77
2023/07/17 00:55:39;;;;;;;5.32;2.00;;;;;;;16.26;100.00;101334.66;5082691;27;20684;-76
2023/07/17 00:58:25;;;;;;;5.70;1.80;;;;;;;16.23;100.00;101333.03;5097270;27;20051;-77
2023/07/17 01:01:12;;;;;;;5.47;1.70;;;;;;;16.21;100.00;101331.41;5098077;27;20059;-76
2023/07/17 01:04:01;;;;;;;4.45;1.88;;;;;;;16.18;100.00;101331.59;5098073;27;20047;-77
2023/07/17 01:06:47;;;;;;;6.38;1.60;;;;;;;16.15;100.00;101335.31;5071542;27;20061;-77
2023/07/17 01:09:33;;;;;;;6.78;2.05;;;;;;;16.12;100.00;101333.69;5099043;27;20747;-76
2023/07/17 01:12:18;;;;;;;4.90;1.63;;;;;;;16.09;100.00;101344.59;5082895;27;20032;-77
2023/07/17 01:15:06;;;;;;;6.75;2.00;;;;;;;16.04;100.00;101330.66;5082310;27;20044;-76
2023/07/17 01:17:52;;;;;;;6.72;1.70;;;;;;;15.99;100.00;101335.41;5083038;27;20080;-76
2023/07/17 01:20:37;;;;;;;7.97;2.67;;;;;;;15.94;100.00;101345.50;5084207;27;20046;-75
2023/07/17 01:23:23;;;;;;;6.60;1.98;;;;;;;15.91;100.00;101334.97;5082553;27;20043;-76
2023/07/17 01:26:14;;;;;;;4.93;1.70;;;;;;;15.84;100.00;101345.16;5082719;27;20047;-75
2023/07/17 01:28:59;;;;;;;6.93;1.98;;;;;;;15.80;100.00;101341.81;5083396;27;20042;-75
2023/07/17 01:31:45;;;;;;;4.72;2.00;;;;;;;15.78;100.00;101350.84;5084621;27;20019;-75
2023/07/17 01:34:31;;;;;;;6.28;2.15;;;;;;;15.73;100.00;101348.47;5082949;27;20028;-76
2023/07/17 01:37:17;;;;;;;7.03;1.65;;;;;;;15.71;100.00;101350.38;5098691;27;20045;-76
2023/07/17 01:40:08;;;;;;;8.70;1.85;;;;;;;15.69;100.00;101346.94;5098229;27;20664;-76
2023/07/17 01:42:54;;;;;;;5.05;1.70;;;;;;;15.66;100.00;101347.97;5071008;27;20088;-76
2023/07/17 01:45:39;;;;;;;3.88;1.92;;;;;;;15.64;100.00;101347.22;5082406;27;20052;-76
2023/07/17 01:48:25;;;;;;;6.63;1.70;;;;;;;15.63;100.00;101345.47;5081698;27;21730;-76
2023/07/17 01:51:11;;;;;;;8.27;1.95;;;;;;;15.60;100.00;101343.84;5097037;27;20488;-76
2023/07/17 01:53:57;;;;;;;4.53;2.10;;;;;;;15.60;100.00;101349.19;5062158;27;20491;-76
2023/07/17 01:56:42;;;;;;;3.97;1.70;;;;;;;15.57;100.00;101344.03;5096592;27;20036;-76
2023/07/17 01:59:28;;;;;;;6.60;2.10;;;;;;;15.56;100.00;101345.00;5096541;27;20180;-77
2023/07/17 02:02:14;;;;;;;7.50;2.05;;;;;;;15.58;100.00;101339.56;5097812;27;20027;-77
2023/07/17 02:05:00;;;;;;;6.15;1.88;;;;;;;15.57;100.00;101346.72;5096696;27;20042;-75
2023/07/17 02:07:46;;;;;;;6.05;2.28;;;;;;;15.57;100.00;101349.38;5098546;27;20563;-75
2023/07/17 02:10:31;;;;;;;7.35;2.05;;;;;;;15.56;100.00;101342.31;5097445;27;20122;-75
2023/07/17 02:13:17;;;;;;;5.38;2.10;;;;;;;15.55;100.00;101343.28;5096488;27;20118;-75
2023/07/17 02:16:03;;;;;;;5.80;2.15;;;;;;;15.55;100.00;101340.63;5098074;27;20028;-76
2023/07/17 02:18:49;;;;;;;6.80;2.38;;;;;;;15.53;100.00;101350.50;5097667;27;20059;-76
2023/07/17 02:21:34;;;;;;;6.05;2.22;;;;;;;15.54;100.00;101343.38;5097093;27;20063;-77
2023/07/17 02:24:20;;;;;;;5.28;2.35;;;;;;;15.53;100.00;101339.81;5082658;27;20031;-76
2023/07/17 02:27:06;;;;;;;6.28;2.25;;;;;;;15.51;100.00;101352.41;5096265;27;20040;-77
2023/07/17 02:29:52;;;;;;;6.45;2.00;;;;;;;15.49;100.00;101359.66;5095357;27;20064;-76
2023/07/17 02:32:38;;;;;;;6.25;2.17;;;;;;;15.47;100.00;101357.06;5097352;27;20039;-75
2023/07/17 02:35:24;;;;;;;5.50;2.33;;;;;;;15.48;100.00;101355.25;5080842;27;20446;-76
2023/07/17 02:38:09;;;;;;;4.20;1.85;;;;;;;15.46;100.00;101357.13;5070173;27;20028;-76
2023/07/17 02:40:55;;;;;;;7.45;2.30;;;;;;;15.46;100.00;101357.13;5096867;27;20041;-76
2023/07/17 02:43:41;;;;;;;6.25;2.10;;;;;;;15.45;100.00;101358.09;5069766;27;20034;-76
2023/07/17 02:46:26;;;;;;;7.85;2.38;;;;;;;15.45;100.00;101366.09;5081730;27;20435;-77
2023/07/17 02:49:13;;;;;;;7.68;2.50;;;;;;;15.42;100.00;101364.47;5096050;27;20039;-77
2023/07/17 02:51:59;;;;;;;8.65;2.30;;;;;;;15.38;100.00;101370.94;5094958;27;20096;-77
2023/07/17 02:54:45;;;;;;;6.30;2.38;;;;;;;15.36;100.00;101363.97;5082125;27;20126;-77
2023/07/17 02:57:34;;;;;;;11.63;2.53;;;;;;;15.32;100.00;101365.97;5080709;27;20036;-77
2023/07/17 03:00:20;;;;;;;10.55;2.45;;;;;;;15.29;100.00;101361.66;5080081;27;20054;-77
2023/07/17 03:03:09;;;;;;;6.05;2.30;;;;;;;15.26;100.00;101361.81;5095528;27;20036;-77
2023/07/17 03:05:56;;;;;;;8.77;2.50;;;;;;;15.24;100.00;101374.38;5080963;27;20042;-76
2023/07/17 03:08:42;;;;;;;8.77;2.78;;;;;;;15.21;100.00;101366.56;5096402;27;20043;-76
2023/07/17 03:11:28;;;;;;;6.93;2.13;;;;;;;15.18;100.00;101370.28;5095791;27;20043;-77
2023/07/17 03:14:14;;;;;;;8.43;2.65;;;;;;;15.17;100.00;101365.00;5096714;27;20093;-77
2023/07/17 03:16:59;;;;;;;9.02;2.60;;;;;;;15.14;100.00;101358.03;5079796;27;20036;-76
2023/07/17 03:19:45;;;;;;;8.13;2.63;;;;;;;15.15;100.00;101364.25;5095595;27;20027;-76
2023/07/17 03:22:31;;;;;;;9.77;2.22;;;;;;;15.11;100.00;101368.03;5095010;27;20424;-76
2023/07/17 03:25:17;;;;;;;11.05;2.60;;;;;;;15.10;100.00;101360.97;5080536;27;20393;-76
2023/07/17 03:28:03;;;;;;;6.20;2.13;;;;;;;15.10;100.00;101366.31;5095912;27;20038;-77
2023/07/17 03:30:49;;;;;;;10.13;2.95;;;;;;;15.07;100.00;101368.22;5095289;27;20095;-77
2023/07/17 03:33:34;;;;;;;7.18;2.67;;;;;;;15.06;100.00;101374.50;5096377;27;20160;-77
2023/07/17 03:36:20;;;;;;;7.30;2.45;;;;;;;15.03;100.00;101364.00;5094868;27;20032;-77
2023/07/17 03:39:06;;;;;;;9.00;2.38;;;;;;;15.03;100.00;101364.00;5096069;27;20031;-76
2023/07/17 03:41:52;;;;;;;12.00;2.97;;;;;;;15.04;100.00;101379.03;5094652;27;20050;-77
2023/07/17 03:44:38;;;;;;;10.30;2.53;;;;;;;15.04;100.00;101367.53;5094947;27;20136;-77
2023/07/17 03:47:23;;;;;;;8.52;2.67;;;;;;;15.04;100.00;101363.03;5080894;27;20071;-77
2023/07/17 03:50:09;;;;;;;14.85;3.10;;;;;;;15.02;100.00;101378.25;5080008;27;20549;-77
2023/07/17 03:52:55;;;;;;;6.32;2.45;;;;;;;15.03;100.00;101382.66;5095595;27;20099;-76
2023/07/17 03:55:41;;;;;;;13.75;2.72;;;;;;;15.03;100.00;101371.97;5095992;27;21694;-76
2023/07/17 03:58:27;;;;;;;11.70;2.97;;;;;;;15.02;100.00;101383.59;5095790;27;20164;-76
2023/07/17 04:01:13;;;;;;;11.10;2.60;;;;;;;15.02;100.00;101385.38;5095783;27;20042;-77
2023/07/17 04:03:59;;;;;;;11.05;2.83;;;;;;;15.03;100.00;101384.47;5067014;28;20035;-76
2023/07/17 04:06:45;;;;;;;11.45;2.88;;;;;;;15.02;100.00;101386.25;5093902;27;20050;-76
2023/07/17 04:09:31;;;;;;;14.82;2.72;;;;;;;15.00;100.00;101382.84;5096715;27;20086;-76
2023/07/17 04:12:17;;;;;;;7.75;2.90;;;;;;;14.99;100.00;101381.09;5080283;27;20035;-77
2023/07/17 04:15:03;;;;;;;8.80;2.45;;;;;;;15.01;100.00;101383.69;5079278;28;20078;-77
2023/07/17 04:17:49;;;;;;;11.40;2.78;;;;;;;15.01;100.00;101381.00;5080882;28;20048;-77
2023/07/17 04:20:41;;;;;;;7.60;2.85;;;;;;;15.01;100.00;101384.56;5093594;27;20036;-75
2023/07/17 04:23:26;;;;;;;9.50;2.42;;;;;;;15.01;100.00;101376.56;5094517;28;20488;-77
2023/07/17 04:26:12;;;;;;;12.07;3.20;;;;;;;15.06;100.00;101384.28;5094209;27;20451;-75
2023/07/17 04:28:58;;;;;;;6.53;2.83;;;;;;;15.08;100.00;101379.72;5102656;27;20135;-75
2023/07/17 04:31:44;;;;;;;8.77;3.13;;;;;;;15.09;100.00;101385.94;5102425;27;20062;-75
2023/07/17 04:34:30;;;;;;;10.18;2.97;;;;;;;15.12;100.00;101385.75;5087039;27;20038;-75
2023/07/17 04:37:18;;;;;;;8.25;2.88;;;;;;;15.14;100.00;101389.19;5101606;27;20043;-75
2023/07/17 04:40:05;;;;;;;6.18;2.83;;;;;;;15.17;100.00;101383.69;5101871;27;20035;-76
2023/07/17 04:42:50;;;;;;;8.77;3.30;;;;;;;15.19;100.00;101385.31;5102029;27;20079;-76
2023/07/17 04:45:42;;;;;;;10.65;3.03;;;;;;;15.23;100.00;101388.66;5101978;27;20043;-76
2023/07/17 04:48:28;;;;;;;8.73;2.63;;;;;;;15.29;100.00;101388.31;5085838;27;20499;-76
2023/07/17 04:51:14;;;;;;;10.80;3.08;;;;;;;15.37;100.00;101390.56;5073470;27;20040;-76
2023/07/17 04:53:59;;;;;;;7.97;2.75;;;;;;;15.47;100.00;101393.53;5086698;27;20515;-76
2023/07/17 04:56:45;;;;;;;8.07;3.40;;;;;;;15.59;100.00;101400.84;5101099;27;20037;-76
2023/07/17 04:59:31;;;;;;;8.80;2.80;;;;;;;15.69;100.00;101397.66;5100057;27;20040;-75
2023/07/17 05:02:17;;;;;;;7.72;2.60;;;;;;;15.73;100.00;101380.50;5086113;27;20035;-75
2023/07/17 05:05:03;;;;;;;9.48;2.83;;;;;;;15.78;100.00;101390.91;5102373;27;20038;-77
2023/07/17 05:07:49;;;;;;;10.25;3.40;;;;;;;15.78;100.00;101388.22;5085960;27;20467;-76
2023/07/17 05:10:35;;;;;;;10.77;3.42;;;;;;;15.80;100.00;101397.03;5086755;27;20510;-76
2023/07/17 05:13:20;;;;;;;12.10;3.15;;;;;;;15.84;100.00;101402.09;5100262;27;20039;-76
2023/07/17 05:16:06;;;;;;;9.40;3.30;;;;;;;15.91;100.00;101404.41;5102669;27;20046;-76
2023/07/17 05:18:52;;;;;;;11.52;3.13;;;;;;;15.95;100.00;101405.97;5102058;27;20255;-77
2023/07/17 05:21:38;;;;;;;7.60;2.90;;;;;;;16.01;100.00;101405.59;5100658;27;20159;-76
2023/07/17 05:24:23;;;;;;;10.45;3.40;;;;;;;16.03;100.00;101411.72;5100888;27;20036;-76
2023/07/17 05:27:09;;;;;;;8.38;3.55;;;;;;;15.99;100.00;101418.19;5086694;27;20683;-76
2023/07/17 05:29:55;;;;;;;8.93;3.60;;;;;;;15.95;100.00;101416.66;5101781;27;20046;-76
2023/07/17 05:32:40;;;;;;;10.20;3.40;;;;;;;15.88;100.00;101425.00;5100391;27;20666;-76
2023/07/17 05:35:26;;;;;;;12.13;3.45;;;;;;;15.82;100.00;101428.03;5099975;27;20582;-76
2023/07/17 05:38:12;;;;;;;14.18;3.60;;;;;;;15.80;100.00;101429.91;5083684;27;20032;-76
2023/07/17 05:41:05;;;;;;;12.75;3.88;;;;;;;15.84;100.00;101431.44;5078419;27;20047;-76
2023/07/17 05:43:50;;;;;;;14.98;4.38;;;;;;;15.92;100.00;101443.53;5097179;27;20085;-76
2023/07/17 05:46:36;;;;;;;11.90;3.72;;;;;;;15.98;100.00;101430.69;5096249;27;20138;-76
2023/07/17 05:49:22;;;;;;;10.20;3.10;;;;;;;16.09;100.00;101435.38;5097919;27;20036;-76
2023/07/17 05:52:07;;;;;;;10.23;3.78;;;;;;;16.25;100.00;101437.13;5097318;27;20139;-76
2023/07/17 05:54:53;;;;;;;8.13;3.22;;;;;;;16.41;100.00;101439.75;5096978;27;20035;-76
2023/07/17 05:57:39;;;;;;;11.63;3.65;;;;;;;16.48;100.00;101442.88;5098250;27;20086;-76
2023/07/17 06:00:25;;;;;;;13.70;3.45;;;;;;;16.48;100.00;101440.22;5097108;27;20039;-76
2023/07/17 06:03:11;;;;;;;9.75;3.45;;;;;;;16.45;100.00;101451.09;5097713;27;20039;-76
2023/07/17 06:05:56;;;;;;;8.75;3.67;;;;;;;16.48;100.00;101456.25;5097315;27;20506;-77
2023/07/17 06:08:42;;;;;;;8.48;3.38;;;;;;;16.61;100.00;101461.72;5086424;27;20063;-76
2023/07/17 06:11:28;;;;;;;5.53;2.60;;;;;;;16.83;100.00;101461.22;5097505;27;20096;-78
2023/07/17 06:14:14;;;;;;;6.03;2.70;;;;;;;17.02;100.00;101466.34;5097043;27;20047;-76
2023/07/17 06:16:59;;;;;;;8.23;3.05;;;;;;;17.21;100.00;101463.34;5096790;27;20118;-77
2023/07/17 06:19:45;;;;;;;7.88;2.85;;;;;;;17.48;100.00;101462.50;5096006;27;20055;-76
2023/07/17 06:22:31;;;;;;;8.00;2.83;;;;;;;17.59;100.00;101474.34;5097294;27;20032;-77
2023/07/17 06:25:17;;;;;;;8.93;2.90;;;;;;;17.56;100.00;101470.06;5096253;27;20560;-77
2023/07/17 06:28:04;;;;;;;7.47;2.78;;;;;;;17.49;100.00;101474.94;5082449;27;20688;-75
2023/07/17 06:30:49;;;;;;;7.38;2.35;;;;;;;17.44;100.00;101476.19;5080550;27;20047;-75
2023/07/17 06:33:35;;;;;;;7.20;2.50;;;;;;;17.51;100.00;101474.84;5095898;27;20028;-76
2023/07/17 06:36:21;;;;;;;7.57;2.70;;;;;;;17.59;100.00;101477.88;5096449;27;20411;-75
2023/07/17 06:39:07;;;;;;;7.30;2.55;;;;;;;17.67;100.00;101482.75;5095866;27;20138;-75
2023/07/17 06:41:53;;;;;;;8.63;2.58;;;;;;;17.84;100.00;101486.09;5096513;27;20040;-77
2023/07/17 06:44:38;;;;;;;5.57;2.20;;;;;;;18.03;100.00;101485.75;5096818;27;20469;-75
2023/07/17 06:47:24;;;;;;;8.13;2.60;;;;;;;18.24;100.00;101496.88;5096152;27;20523;-76
2023/07/17 06:50:10;;;;;;;4.20;2.50;;;;;;;18.30;100.00;101496.44;5094104;27;20483;-76
2023/07/17 06:52:56;;;;;;;5.10;1.95;;;;;;;18.31;100.00;101495.47;5096374;27;20495;-76
2023/07/17 06:55:42;;;;;;;6.18;2.40;;;;;;;18.46;100.00;101487.34;5080465;27;20043;-77
2023/07/17 06:58:27;;;;;;;4.60;1.95;;;;;;;18.63;100.00;101496.06;5098279;27;20028;-77
2023/07/17 07:01:14;;;;;;;4.07;1.95;;;;;;;18.73;100.00;101503.34;5094844;27;20028;-75
2023/07/17 07:04:00;;;;;;;3.42;1.95;;;;;;;18.83;100.00;101498.22;5095154;27;20027;-76
2023/07/17 07:06:46;;;;;;;5.95;2.20;;;;;;;18.82;100.00;101506.34;5095456;27;20040;-77
2023/07/17 07:09:31;;;;;;;5.47;2.10;;;;;;;18.88;100.00;101513.97;5096038;27;20506;-78
2023/07/17 07:12:17;;;;;;;4.43;1.80;;;;;;;18.99;100.00;101507.84;5095705;27;20105;-76
2023/07/17 07:15:05;;;;;;;3.58;1.63;;;;;;;19.16;100.00;101509.34;5095403;27;20083;-76
2023/07/17 07:17:51;;;;;;;7.18;2.20;;;;;;;19.35;100.00;101500.81;5080325;27;20040;-76
2023/07/17 07:20:37;;;;;;;3.85;1.80;;;;;;;19.57;98.46;101504.66;5096641;27;20376;-78
2023/07/17 07:23:22;;;;;;;6.13;1.92;;;;;;;19.47;98.32;101517.03;5081131;27;20030;-77
2023/07/17 07:26:08;;;;;;;4.20;2.00;;;;;;;19.30;97.96;101513.75;5080069;27;20117;-78
2023/07/17 07:28:54;;;;;;;5.57;1.90;;;;;;;19.01;97.23;101522.00;5095486;27;20047;-77
2023/07/17 07:31:40;;;;;;;6.82;1.90;;;;;;;18.93;97.44;101521.69;5081076;27;20073;-77
2023/07/17 07:34:26;;;;;;;4.95;2.15;;;;;;;18.78;98.07;101527.16;5094954;27;20040;-78
2023/07/17 07:37:11;;;;;;;5.55;2.35;;;;;;;18.68;97.57;101534.16;5094452;27;20035;-77
2023/07/17 07:39:57;;;;;;;3.13;1.83;;;;;;;18.70;98.18;101545.63;5096103;27;20039;-77
2023/07/17 07:42:43;;;;;;;5.07;2.00;;;;;;;18.91;98.57;101537.03;5095342;27;20031;-77
2023/07/17 07:45:29;;;;;;;3.80;1.75;;;;;;;19.09;97.38;101548.34;5082487;27;20066;-77
2023/07/17 07:48:15;;;;;;;4.78;1.85;;;;;;;18.98;96.04;101559.78;5065763;27;20178;-78
2023/07/17 07:51:00;;;;;;;8.10;2.05;;;;;;;18.82;95.45;101550.13;5079235;27;20040;-77
2023/07/17 07:53:46;;;;;;;6.90;1.95;;;;;;;18.70;96.14;101569.75;5095793;27;20030;-76
2023/07/17 07:56:32;;;;;;;5.22;1.70;;;;;;;18.48;94.23;101565.00;5095863;27;20074;-76
2023/07/17 07:59:17;;;;;;;4.13;1.90;;;;;;;18.30;94.66;101563.44;5079676;27;20086;-75
2023/07/17 08:02:03;;;;;;;4.05;1.80;;;;;;;18.27;94.14;101563.66;5094240;27;20035;-77
2023/07/17 08:04:53;;;;;;;3.47;2.10;;;;;;;18.46;94.93;101565.09;5094048;27;20027;-76
2023/07/17 08:07:39;;;;;;;5.82;2.20;;;;;;;18.77;95.15;101565.69;5094539;27;20043;-74
2023/07/17 08:10:24;;;;;;;5.50;2.60;;;;;;;19.12;94.11;101573.13;5079774;27;20101;-76
2023/07/17 08:13:10;;;;;;;5.70;2.00;;;;;;;19.20;92.17;101572.59;5094710;27;20398;-77
2023/07/17 08:15:56;;;;;;;5.43;2.05;;;;;;;19.06;92.13;101583.44;5094261;27;20128;-75
2023/07/17 08:18:42;;;;;;;4.90;1.95;;;;;;;18.85;91.63;101592.81;5080159;28;20046;-76
2023/07/17 08:21:28;;;;;;;4.80;1.98;;;;;;;18.75;91.44;101591.75;5094575;27;20411;-76
2023/07/17 08:24:13;;;;;;;7.10;2.15;;;;;;;18.80;91.38;101584.22;5094839;28;20039;-76
2023/07/17 08:27:00;;;;;;;6.15;2.03;;;;;;;18.99;91.21;101588.34;5094317;28;20035;-76
2023/07/17 08:29:46;;;;;;;2.67;1.67;;;;;;;19.01;89.55;101591.75;5094474;27;20039;-76
2023/07/17 08:32:32;;;;;;;3.33;1.60;;;;;;;18.96;88.11;101599.28;5094484;28;20043;-76
2023/07/17 08:35:17;;;;;;;4.15;1.70;;;;;;;18.86;86.77;101599.06;5095737;28;20096;-77
2023/07/17 08:38:04;;;;;;;7.55;1.77;;;;;;;18.85;87.17;101605.41;5080835;28;20766;-76
2023/07/17 08:40:52;;;;;;;4.18;1.70;;;;;;;19.06;88.00;101605.75;5079446;28;20032;-76
2023/07/17 08:43:38;;;;;;;2.63;1.38;;;;;;;19.29;84.75;101614.03;5094483;28;20047;-77
2023/07/17 08:46:24;;;;;;;2.33;1.50;;;;;;;19.35;84.81;101612.72;5079115;28;20112;-77
2023/07/17 08:49:11;;;;;;;5.68;2.08;;;;;;;19.38;85.64;101610.69;5095172;28;20445;-76
2023/07/17 08:51:57;;;;;;;5.20;1.83;;;;;;;19.74;86.49;101609.97;5065645;28;20102;-75
2023/07/17 08:54:43;;;;;;;3.17;1.77;;;;;;;20.05;85.37;101605.94;5078215;28;20091;-80
2023/07/17 08:57:30;;;;;;;3.85;1.73;;;;;;;20.07;85.16;101616.56;5079172;28;20036;-76
2023/07/17 09:00:16;;;;;;;4.78;1.70;;;;;;;20.00;85.01;101612.63;5076915;28;20067;-77
2023/07/17 09:03:02;;;;;;;9.93;2.20;;;;;;;19.78;85.19;101624.91;5064600;28;20229;-76
2023/07/17 09:05:49;;;;;;;3.67;1.75;;;;;;;19.77;85.40;101621.34;5094113;28;20039;-76
2023/07/17 09:08:35;;;;;;;4.53;1.77;;;;;;;19.91;85.55;101628.44;5095924;28;20031;-76
2023/07/17 09:11:20;;;;;;;5.13;1.85;;;;;;;20.00;85.42;101632.28;5095358;28;20093;-77
2023/07/17 09:14:07;;;;;;;4.50;1.30;;;;;;;20.30;85.36;101620.25;5080345;27;20050;-77
2023/07/17 09:17:07;;;;;;;5.13;1.88;;;;;;;20.70;85.06;101626.28;5098249;27;20647;-76
2023/07/17 09:20:07;;;;;;;2.97;1.50;;;;;;;20.98;82.43;101621.47;5099289;27;20122;-76
2023/07/17 09:23:00;;;;;;;5.72;1.50;;;;;;;20.98;80.62;101624.16;5098753;27;20024;-76
2023/07/17 09:25:48;;;;;;;2.72;1.38;;;;;;;21.09;82.69;101623.34;5084088;27;21597;-76
2023/07/17 09:28:37;;;;;;;2.60;1.35;;;;;;;21.26;82.62;101625.56;5098170;27;20046;-77
2023/07/17 09:31:27;;;;;;;8.27;1.85;;;;;;;21.39;82.23;101619.19;5097144;27;20780;-76
2023/07/17 09:34:13;;;;;;;3.42;1.60;;;;;;;21.29;80.99;101619.91;5099668;27;20042;-76
2023/07/17 09:37:08;;;;;;;8.13;1.60;;;;;;;21.49;79.89;101627.38;5098414;27;20035;-77
2023/07/17 09:39:54;;;;;;;4.32;1.70;;;;;;;21.52;79.03;101630.69;5087746;27;20032;-76
2023/07/17 09:42:42;;;;;;;5.70;1.77;;;;;;;21.57;77.27;101633.88;5098271;27;20039;-77
2023/07/17 09:45:28;;;;;;;4.90;1.70;;;;;;;21.60;77.04;101627.41;5097945;27;20055;-76
2023/07/17 09:48:14;;;;;;;3.42;1.40;;;;;;;21.49;74.02;101639.03;5069177;27;20709;-76
2023/07/17 09:51:01;;;;;;;3.28;1.40;;;;;;;21.49;75.24;101644.41;5081704;27;20039;-75
2023/07/17 09:53:47;;;;;;;3.90;1.77;;;;;;;21.45;74.09;101640.25;5082439;27;20027;-76
2023/07/17 09:56:33;;;;;;;2.95;1.55;;;;;;;21.53;73.45;101653.94;5097552;27;20036;-76
2023/07/17 09:59:20;;;;;;;4.35;1.98;;;;;;;21.46;72.49;101663.50;5098053;27;20051;-77
2023/07/17 10:02:12;;;;;;;6.03;1.90;;;;;;;21.43;72.80;101653.84;5081969;27;20446;-76
2023/07/17 10:05:00;;;;;;;4.37;1.70;;;;;;;21.54;73.89;101655.69;5081598;27;20031;-76
2023/07/17 10:07:47;;;;;;;5.90;2.05;;;;;;;21.90;73.05;101657.41;5082135;27;20103;-75
2023/07/17 10:10:33;;;;;;;4.93;1.75;;;;;;;21.87;72.03;101660.34;5081636;27;20039;-77
2023/07/17 10:13:18;;;;;;;2.95;1.90;;;;;;;22.00;71.82;101661.06;5094933;27;20038;-77
2023/07/17 10:16:04;;;;;;;5.43;1.73;;;;;;;22.04;71.53;101664.34;5094692;27;20544;-76
2023/07/17 10:18:54;;;;;;;3.65;1.80;;;;;;;21.87;70.51;101655.81;5078246;27;20122;-76
2023/07/17 10:21:56;;;;;;;5.03;1.80;;;;;;;21.58;68.94;101667.06;5078731;27;20123;-75
2023/07/17 10:24:42;;;;;;;3.85;1.95;;;;;;;21.23;71.51;101668.88;5082194;27;20059;-76
2023/07/17 10:27:39;;;;;;;3.25;1.80;;;;;;;21.16;71.99;101667.63;5081654;27;20437;-75
2023/07/17 10:30:25;;;;;;;5.68;1.67;;;;;;;21.12;72.74;101668.84;5095969;27;20573;-75
2023/07/17 10:33:15;;;;;;;3.80;1.90;;;;;;;21.11;72.85;101673.38;5096584;27;20036;-75
2023/07/17 10:36:01;;;;;;;3.38;1.50;;;;;;;21.21;73.18;101665.44;5074920;27;20043;-75
2023/07/17 10:38:53;;;;;;;2.63;1.65;;;;;;;21.24;72.09;101658.97;5094849;27;20034;-76
2023/07/17 10:41:39;;;;;;;2.78;1.50;;;;;;;21.16;70.59;101667.63;5094352;27;20059;-77
2023/07/17 10:44:25;;;;;;;2.85;1.60;;;;;;;21.04;71.67;101674.84;5081349;27;20032;-76
2023/07/17 10:47:10;;;;;;;2.33;1.48;;;;;;;21.12;70.56;101667.00;5081773;27;20058;-74
2023/07/17 10:50:02;;;;;;;4.03;1.90;;;;;;;21.13;69.81;101678.66;5080420;27;20027;-75
2023/07/17 10:52:48;;;;;;;3.25;1.50;;;;;;;21.05;71.07;101662.22;5078823;27;20054;-74
2023/07/17 10:55:34;;;;;;;3.95;1.65;;;;;;;20.97;71.09;101662.84;5096053;27;20043;-75
2023/07/17 10:58:20;;;;;;;2.83;1.15;;;;;;;21.05;71.34;101686.44;5080440;27;20046;-76
2023/07/17 11:01:06;;;;;;;5.03;1.67;;;;;;;20.91;70.65;101682.97;5095738;27;20043;-76
2023/07/17 11:03:53;;;;;;;4.93;1.52;;;;;;;20.75;71.15;101683.25;5095788;27;20037;-76
2023/07/17 11:06:39;;;;;;;3.53;1.77;;;;;;;20.77;71.65;101692.91;5096095;27;20631;-76
2023/07/17 11:09:27;;;;;;;1.95;1.10;;;;;;;20.92;71.56;101689.22;5095782;27;20038;-75
2023/07/17 11:12:12;;;;;;;3.95;1.30;;;;;;;20.89;70.83;101690.31;5096026;27;20046;-76
2023/07/17 11:14:58;;;;;;;4.20;1.63;;;;;;;20.80;71.54;101682.94;5095415;27;20035;-75
2023/07/17 11:17:45;;;;;;;15.55;13.90;;;;;;;20.70;71.68;101690.84;5096036;27;20042;-76
2023/07/17 11:20:32;;;;;;;4.38;1.50;;;;;;;20.49;71.96;101703.06;5080964;27;20034;-76
2023/07/17 11:23:18;;;;;;;2.22;1.20;;;;;;;20.35;72.44;101693.34;5081288;27;20035;-77
2023/07/17 11:26:03;;;;;;;6.53;1.45;;;;;;;20.57;73.25;101693.56;5080931;27;20031;-76
2023/07/17 11:28:51;;;;;;;4.32;1.75;;;;;;;20.81;73.30;101704.31;5094678;27;20047;-75
2023/07/17 11:31:37;;;;;;;4.97;1.65;;;;;;;21.00;72.53;101701.13;5080338;27;20123;-75
2023/07/17 11:34:23;;;;;;;2.88;1.35;;;;;;;21.12;71.49;101701.13;5073737;27;20162;-76
2023/07/17 11:37:09;;;;;;;3.25;1.50;;;;;;;21.29;72.20;101700.69;5094794;27;20084;-74
2023/07/17 11:39:55;;;;;;;4.03;1.40;;;;;;;21.50;71.17;101709.91;5094967;27;20039;-75
2023/07/17 11:42:57;;;;;;;3.35;1.60;;;;;;;21.44;70.73;101708.56;5095613;27;20043;-75
2023/07/17 11:45:42;;;;;;;3.53;1.60;;;;;;;21.41;69.74;101700.72;5095514;27;20132;-76
2023/07/17 11:48:32;;;;;;;2.47;1.33;;;;;;;21.38;70.35;101703.66;5094430;27;20036;-74
2023/07/17 11:51:23;;;;;;;3.22;1.60;;;;;;;21.38;68.73;101712.59;5070591;27;20046;-77
2023/07/17 11:54:09;;;;;;;4.53;1.60;;;;;;;21.32;70.55;101705.00;5079779;27;20054;-76
2023/07/17 11:57:02;;;;;;;4.53;1.90;;;;;;;21.35;69.60;101704.75;5095010;27;20062;-76
2023/07/17 11:59:48;;;;;;;5.30;1.70;;;;;;;21.37;69.31;101699.25;5079569;27;20035;-75
2023/07/17 12:02:34;;;;;;;3.42;1.60;;;;;;;21.53;70.15;101698.91;5095076;27;20480;-75
2023/07/17 12:05:20;;;;;;;3.63;1.55;;;;;;;21.64;69.94;101700.75;5095219;27;20059;-77
2023/07/17 12:08:06;;;;;;;3.65;1.90;;;;;;;21.81;68.53;101686.81;5080359;27;20043;-78
2023/07/17 12:10:52;;;;;;;1.90;1.33;;;;;;;21.92;67.91;101695.88;5079737;27;20039;-76
2023/07/17 12:13:38;;;;;;;5.18;1.80;;;;;;;21.77;67.04;101697.94;5061629;28;20039;-75
2023/07/17 12:16:24;;;;;;;3.63;1.50;;;;;;;21.65;67.31;101697.06;5079239;28;20043;-76
2023/07/17 12:19:10;;;;;;;3.00;1.52;;;;;;;21.52;66.90;101692.66;5096139;28;20122;-76
2023/07/17 12:21:56;;;;;;;2.67;1.48;;;;;;;21.55;66.51;101695.09;5094820;27;20072;-76
2023/07/17 12:24:41;;;;;;;2.85;1.40;;;;;;;21.55;66.31;101700.50;5094997;27;20039;-77
2023/07/17 12:27:27;;;;;;;2.97;1.38;;;;;;;21.63;66.58;101699.03;5094638;28;20052;-76
2023/07/17 12:30:14;;;;;;;3.30;1.42;;;;;;;21.71;65.49;101699.31;5096382;27;20119;-77
2023/07/17 12:33:00;;;;;;;2.35;1.60;;;;;;;21.72;66.16;101709.09;5096219;28;20031;-77
2023/07/17 12:35:46;;;;;;;3.42;1.42;;;;;;;21.66;65.92;101705.03;5096112;28;20407;-75
2023/07/17 12:38:32;;;;;;;2.35;1.50;;;;;;;21.45;65.17;101715.66;5094785;28;20036;-76
2023/07/17 12:41:18;;;;;;;2.75;1.40;;;;;;;21.39;66.35;101706.22;5065379;28;20039;-76
2023/07/17 12:44:04;;;;;;;3.40;1.60;;;;;;;21.45;67.33;101699.50;5061512;28;20032;-76
2023/07/17 12:46:50;;;;;;;3.42;1.35;;;;;;;21.67;67.75;101709.44;5078401;28;20684;-77